sensor_id;sensor_type;location;lat;lon;timestamp;pressure;altitude;pressure_sealevel;temperature;humidity
5996;BME280;3026;53.612;7.278;2022-12-11T00:02:23;101014.41;;;-0.35;100.00
5996;BME280;3026;53.612;7.278;2022-12-11T00:04:50;101016.16;;;-0.34;100.00
5996;BME280;3026;53.612;7.278;2022-12-11T00:07:16;101017.88;;;-0.33;100.00
5996;BME280;3026;53.612;7.278;2022-12-11T00:09:43;101016.16;;;-0.34;100.00
5996;BME280;3026;53.612;7.278;2022-12-11T00:12:10;101015.94;;;-0.31;100.00
5996;BME280;3026;53.612;7.278;2022-12-11T00:14:37;101024.72;;;-0.29;100.00
5996;BME280;3026;53.612;7.278;2022-12-11T00:17:05;101020.44;;;-0.32;100.00
5996;BME280;3026;53.612;7.278;2022-12-11T00:19:33;101026.88;;;-0.34;100.00
5996;BME280;3026;53.612;7.278;2022-12-11T00:22:00;101012.78;;;-0.38;100.00
5996;BME280;3026;53.612;7.278;2022-12-11T00:24:27;101010.09;;;-0.38;100.00
5996;BME280;3026;53.612;7.278;2022-12-11T00:26:53;101019.97;;;-0.38;100.00
5996;BME280;3026;53.612;7.278;2022-12-11T00:29:20;101011.16;;;-0.40;100.00
5996;BME280;3026;53.612;7.278;2022-12-11T00:31:47;101006.97;;;-0.44;100.00
5996;BME280;3026;53.612;7.278;2022-12-11T00:34:16;101009.66;;;-0.44;100.00
5996;BME280;3026;53.612;7.278;2022-12-11T00:36:42;101021.69;;;-0.37;100.00
5996;BME280;3026;53.612;7.278;2022-12-11T00:39:09;101022.53;;;-0.37;100.00
5996;BME280;3026;53.612;7.278;2022-12-11T00:41:36;101015.47;;;-0.38;100.00
5996;BME280;3026;53.612;7.278;2022-12-11T00:44:03;101024.34;;;-0.37;100.00
5996;BME280;3026;53.612;7.278;2022-12-11T00:46:30;101023.59;;;-0.39;100.00
5996;BME280;3026;53.612;7.278;2022-12-11T00:48:57;101032.41;;;-0.37;100.00
5996;BME280;3026;53.612;7.278;2022-12-11T00:51:25;101030.56;;;-0.37;100.00
5996;BME280;3026;53.612;7.278;2022-12-11T00:53:52;101026.19;;;-0.38;100.00
5996;BME280;3026;53.612;7.278;2022-12-11T00:56:21;101023.59;;;-0.39;100.00
5996;BME280;3026;53.612;7.278;2022-12-11T00:58:49;101020.91;;;-0.39;100.00
5996;BME280;3026;53.612;7.278;2022-12-11T01:01:18;101032.41;;;-0.37;100.00
5996;BME280;3026;53.612;7.278;2022-12-11T01:03:46;101029.63;;;-0.36;100.00
5996;BME280;3026;53.612;7.278;2022-12-11T01:06:14;101031.44;;;-0.36;100.00
5996;BME280;3026;53.612;7.278;2022-12-11T01:08:44;101027.03;;;-0.37;100.00
5996;BME280;3026;53.612;7.278;2022-12-11T01:11:12;101034.13;;;-0.36;100.00
5996;BME280;3026;53.612;7.278;2022-12-11T01:13:39;101037.56;;;-0.34;100.00
5996;BME280;3026;53.612;7.278;2022-12-11T01:16:07;101041.03;;;-0.32;100.00
5996;BME280;3026;53.612;7.278;2022-12-11T01:18:35;101046.38;;;-0.32;100.00
5996;BME280;3026;53.612;7.278;2022-12-11T01:21:06;101029.63;;;-0.36;100.00
5996;BME280;3026;53.612;7.278;2022-12-11T01:23:33;101033.94;;;-0.33;100.00
5996;BME280;3026;53.612;7.278;2022-12-11T01:26:05;101035.81;;;-0.35;100.00
5996;BME280;3026;53.612;7.278;2022-12-11T01:28:32;101037.56;;;-0.34;100.00
5996;BME280;3026;53.612;7.278;2022-12-11T01:30:59;101036.50;;;-0.32;100.00
5996;BME280;3026;53.612;7.278;2022-12-11T01:33:26;101033.94;;;-0.33;100.00
5996;BME280;3026;53.612;7.278;2022-12-11T01:35:53;101035.81;;;-0.35;100.00
5996;BME280;3026;53.612;7.278;2022-12-11T01:38:21;101039.47;;;-0.36;100.00
5996;BME280;3026;53.612;7.278;2022-12-11T01:40:49;101034.31;;;-0.39;100.00
5996;BME280;3026;53.612;7.278;2022-12-11T01:43:17;101039.69;;;-0.39;100.00
5996;BME280;3026;53.612;7.278;2022-12-11T01:45:47;101027.25;;;-0.40;100.00
5996;BME280;3026;53.612;7.278;2022-12-11T01:48:17;101025.53;;;-0.41;100.00
5996;BME280;3026;53.612;7.278;2022-12-11T01:50:47;101029.16;;;-0.42;100.00
5996;BME280;3026;53.612;7.278;2022-12-11T01:53:18;101024.00;;;-0.45;100.00
5996;BME280;3026;53.612;7.278;2022-12-11T01:55:47;101024.19;;;-0.48;100.00
5996;BME280;3026;53.612;7.278;2022-12-11T01:58:19;101025.72;;;-0.44;100.00
5996;BME280;3026;53.612;7.278;2022-12-11T02:00:48;101022.09;;;-0.43;100.00
5996;BME280;3026;53.612;7.278;2022-12-11T02:03:15;101020.16;;;-0.41;100.00
5996;BME280;3026;53.612;7.278;2022-12-11T02:05:42;101018.44;;;-0.42;100.00
5996;BME280;3026;53.612;7.278;2022-12-11T02:08:09;101009.66;;;-0.44;100.00
5996;BME280;3026;53.612;7.278;2022-12-11T02:10:51;101007.06;;;-0.46;100.00
5996;BME280;3026;53.612;7.278;2022-12-11T02:13:27;101021.88;;;-0.40;100.00
5996;BME280;3026;53.612;7.278;2022-12-11T02:15:59;101029.38;;;-0.45;100.00
5996;BME280;3026;53.612;7.278;2022-12-11T02:18:35;101020.53;;;-0.47;100.00
5996;BME280;3026;53.612;7.278;2022-12-11T02:21:09;101009.16;;;-0.51;100.00
5996;BME280;3026;53.612;7.278;2022-12-11T02:23:57;101019.03;;;-0.51;100.00
5996;BME280;3026;53.612;7.278;2022-12-11T02:26:41;101027.81;;;-0.49;100.00
5996;BME280;3026;53.612;7.278;2022-12-11T02:29:17;101021.50;;;-0.48;100.00
5996;BME280;3026;53.612;7.278;2022-12-11T02:31:49;101020.66;;;-0.49;100.00
5996;BME280;3026;53.612;7.278;2022-12-11T02:34:24;101010.03;;;-0.50;100.00
5996;BME280;3026;53.612;7.278;2022-12-11T02:36:57;101017.31;;;-0.52;100.00
5996;BME280;3026;53.612;7.278;2022-12-11T02:39:27;101006.59;;;-0.52;100.00
5996;BME280;3026;53.612;7.278;2022-12-11T02:41:55;101013.66;;;-0.51;100.00
5996;BME280;3026;53.612;7.278;2022-12-11T02:44:26;101011.94;;;-0.52;100.00
5996;BME280;3026;53.612;7.278;2022-12-11T02:46:55;101004.28;;;-0.59;100.00
5996;BME280;3026;53.612;7.278;2022-12-11T02:49:25;101006.97;;;-0.59;100.00
5996;BME280;3026;53.612;7.278;2022-12-11T02:51:54;101006.97;;;-0.59;100.00
5996;BME280;3026;53.612;7.278;2022-12-11T02:54:24;101015.78;;;-0.56;100.00
5996;BME280;3026;53.612;7.278;2022-12-11T02:56:56;101000.94;;;-0.62;100.00
5996;BME280;3026;53.612;7.278;2022-12-11T02:59:31;101000.75;;;-0.59;100.00
5996;BME280;3026;53.612;7.278;2022-12-11T03:02:00;100993.22;;;-0.67;100.00
5996;BME280;3026;53.612;7.278;2022-12-11T03:04:28;100980.97;;;-0.71;100.00
5996;BME280;3026;53.612;7.278;2022-12-11T03:06:58;100993.41;;;-0.70;100.00
5996;BME280;3026;53.612;7.278;2022-12-11T03:09:37;100997.03;;;-0.71;100.00
5996;BME280;3026;53.612;7.278;2022-12-11T03:12:05;100998.59;;;-0.67;100.00
5996;BME280;3026;53.612;7.278;2022-12-11T03:14:34;100995.91;;;-0.67;100.00
5996;BME280;3026;53.612;7.278;2022-12-11T03:17:05;100991.50;;;-0.68;100.00
5996;BME280;3026;53.612;7.278;2022-12-11T03:19:35;100991.69;;;-0.71;100.00
5996;BME280;3026;53.612;7.278;2022-12-11T03:22:08;100983.94;;;-0.75;100.00
5996;BME280;3026;53.612;7.278;2022-12-11T03:24:39;100985.66;;;-0.74;100.00
5996;BME280;3026;53.612;7.278;2022-12-11T03:27:11;100991.88;;;-0.74;100.00
5996;BME280;3026;53.612;7.278;2022-12-11T03:29:47;100985.88;;;-0.77;100.00
5996;BME280;3026;53.612;7.278;2022-12-11T03:32:20;100981.47;;;-0.78;100.00
5996;BME280;3026;53.612;7.278;2022-12-11T03:34:53;100983.28;;;-0.79;100.00
5996;BME280;3026;53.612;7.278;2022-12-11T03:37:24;100968.25;;;-0.81;100.00
5996;BME280;3026;53.612;7.278;2022-12-11T03:39:58;100988.44;;;-0.76;100.00
5996;BME280;3026;53.612;7.278;2022-12-11T03:42:28;100986.72;;;-0.77;100.00
5996;BME280;3026;53.612;7.278;2022-12-11T03:44:58;100985.88;;;-0.77;100.00
5996;BME280;3026;53.612;7.278;2022-12-11T03:47:29;100983.28;;;-0.79;100.00
5996;BME280;3026;53.612;7.278;2022-12-11T03:49:57;100976.00;;;-0.77;100.00
5996;BME280;3026;53.612;7.278;2022-12-11T03:52:26;100986.53;;;-0.74;100.00
5996;BME280;3026;53.612;7.278;2022-12-11T03:54:56;100975.81;;;-0.74;100.00
5996;BME280;3026;53.612;7.278;2022-12-11T03:57:29;100974.09;;;-0.75;100.00
5996;BME280;3026;53.612;7.278;2022-12-11T03:59:59;100961.00;;;-0.79;100.00
5996;BME280;3026;53.612;7.278;2022-12-11T04:02:31;100968.75;;;-0.75;100.00
5996;BME280;3026;53.612;7.278;2022-12-11T04:04:58;100965.09;;;-0.74;100.00
5996;BME280;3026;53.612;7.278;2022-12-11T04:07:25;100959.75;;;-0.74;100.00
5996;BME280;3026;53.612;7.278;2022-12-11T04:09:53;100953.53;;;-0.74;100.00
5996;BME280;3026;53.612;7.278;2022-12-11T04:12:20;100962.22;;;-0.71;100.00
5996;BME280;3026;53.612;7.278;2022-12-11T04:14:46;100956.97;;;-0.72;100.00
5996;BME280;3026;53.612;7.278;2022-12-11T04:17:31;100964.91;;;-0.71;100.00
5996;BME280;3026;53.612;7.278;2022-12-11T04:20:16;100960.41;;;-0.70;100.00
5996;BME280;3026;53.612;7.278;2022-12-11T04:23:15;100955.03;;;-0.70;100.00
5996;BME280;3026;53.612;7.278;2022-12-11T04:26:03;100961.09;;;-0.67;100.00
5996;BME280;3026;53.612;7.278;2022-12-11T04:28:30;100956.59;;;-0.66;100.00
5996;BME280;3026;53.612;7.278;2022-12-11T04:30:56;100963.56;;;-0.64;100.00
5996;BME280;3026;53.612;7.278;2022-12-11T04:33:25;100964.31;;;-0.62;100.00
5996;BME280;3026;53.612;7.278;2022-12-11T04:35:52;100952.97;;;-0.65;100.00
5996;BME280;3026;53.612;7.278;2022-12-11T04:38:18;100960.88;;;-0.64;100.00
5996;BME280;3026;53.612;7.278;2022-12-11T04:40:45;100972.16;;;-0.59;100.00
5996;BME280;3026;53.612;7.278;2022-12-11T04:43:12;100968.53;;;-0.57;100.00
5996;BME280;3026;53.612;7.278;2022-12-11T04:45:39;100963.09;;;-0.56;100.00
5996;BME280;3026;53.612;7.278;2022-12-11T04:48:06;100972.72;;;-0.53;100.00
5996;BME280;3026;53.612;7.278;2022-12-11T04:50:34;100971.78;;;-0.52;100.00
5996;BME280;3026;53.612;7.278;2022-12-11T04:53:01;100971.66;;;-0.51;100.00
5996;BME280;3026;53.612;7.278;2022-12-11T04:55:28;100976.16;;;-0.51;100.00
5996;BME280;3026;53.612;7.278;2022-12-11T04:57:55;100970.59;;;-0.48;100.00
5996;BME280;3026;53.612;7.278;2022-12-11T05:00:21;100967.81;;;-0.47;100.00
5996;BME280;3026;53.612;7.278;2022-12-11T05:02:48;100962.28;;;-0.44;100.00
5996;BME280;3026;53.612;7.278;2022-12-11T05:05:15;100965.81;;;-0.43;100.00
5996;BME280;3026;53.612;7.278;2022-12-11T05:07:43;100957.78;;;-0.43;100.00
5996;BME280;3026;53.612;7.278;2022-12-11T05:10:10;100960.47;;;-0.43;100.00
5996;BME280;3026;53.612;7.278;2022-12-11T05:12:37;100964.75;;;-0.41;100.00
5996;BME280;3026;53.612;7.278;2022-12-11T05:15:05;100971.84;;;-0.40;100.00
5996;BME280;3026;53.612;7.278;2022-12-11T05:17:32;100970.78;;;-0.37;100.00
5996;BME280;3026;53.612;7.278;2022-12-11T05:20:00;100962.75;;;-0.37;100.00
5996;BME280;3026;53.612;7.278;2022-12-11T05:22:29;100965.31;;;-0.36;100.00
5996;BME280;3026;53.612;7.278;2022-12-11T05:24:57;100966.00;;;-0.32;100.00
5996;BME280;3026;53.612;7.278;2022-12-11T05:27:25;100973.06;;;-0.31;100.00
5996;BME280;3026;53.612;7.278;2022-12-11T05:29:52;100969.44;;;-0.30;100.00
5996;BME280;3026;53.612;7.278;2022-12-11T05:32:19;100970.38;;;-0.31;100.00
5996;BME280;3026;53.612;7.278;2022-12-11T05:34:45;100976.50;;;-0.29;100.00
5996;BME280;3026;53.612;7.278;2022-12-11T05:37:12;100968.25;;;-0.26;100.00
5996;BME280;3026;53.612;7.278;2022-12-11T05:39:39;100960.22;;;-0.26;100.00
5996;BME280;3026;53.612;7.278;2022-12-11T05:42:07;100957.44;;;-0.24;100.00
5996;BME280;3026;53.612;7.278;2022-12-11T05:44:34;100961.94;;;-0.25;100.00
5996;BME280;3026;53.612;7.278;2022-12-11T05:47:01;100971.69;;;-0.24;100.00
5996;BME280;3026;53.612;7.278;2022-12-11T05:49:28;100968.16;;;-0.24;100.00
5996;BME280;3026;53.612;7.278;2022-12-11T05:51:55;100964.81;;;-0.28;100.00
5996;BME280;3026;53.612;7.278;2022-12-11T05:54:22;100971.63;;;-0.22;100.00
5996;BME280;3026;53.612;7.278;2022-12-11T05:56:50;100965.56;;;-0.26;100.00
5996;BME280;3026;53.612;7.278;2022-12-11T05:59:18;100964.50;;;-0.23;100.00
5996;BME280;3026;53.612;7.278;2022-12-11T06:01:45;100978.69;;;-0.21;100.00
5996;BME280;3026;53.612;7.278;2022-12-11T06:04:11;100974.38;;;-0.24;100.00
5996;BME280;3026;53.612;7.278;2022-12-11T06:06:38;100963.56;;;-0.22;100.00
5996;BME280;3026;53.612;7.278;2022-12-11T06:09:06;100965.94;;;-0.18;100.00
5996;BME280;3026;53.612;7.278;2022-12-11T06:11:34;100958.75;;;-0.17;100.00
5996;BME280;3026;53.612;7.278;2022-12-11T06:14:02;100964.97;;;-0.17;100.00
5996;BME280;3026;53.612;7.278;2022-12-11T06:16:31;100967.44;;;-0.14;100.00
5996;BME280;3026;53.612;7.278;2022-12-11T06:18:58;100948.91;;;-0.17;100.00
5996;BME280;3026;53.612;7.278;2022-12-11T06:21:27;100952.34;;;-0.15;100.00
5996;BME280;3026;53.612;7.278;2022-12-11T06:23:56;100951.94;;;-0.09;100.00
5996;BME280;3026;53.612;7.278;2022-12-11T06:26:24;100955.38;;;-0.07;100.00
5996;BME280;3026;53.612;7.278;2022-12-11T06:28:51;100950.97;;;-0.08;100.00
5996;BME280;3026;53.612;7.278;2022-12-11T06:31:19;100943.78;;;-0.07;100.00
5996;BME280;3026;53.612;7.278;2022-12-11T06:33:48;100942.19;;;-0.10;100.00
5996;BME280;3026;53.612;7.278;2022-12-11T06:36:16;100939.06;;;-0.04;100.00
5996;BME280;3026;53.612;7.278;2022-12-11T06:38:44;100941.75;;;-0.04;100.00
5996;BME280;3026;53.612;7.278;2022-12-11T06:41:12;100941.66;;;-0.02;100.00
5996;BME280;3026;53.612;7.278;2022-12-11T06:43:40;100938.00;;;-0.01;100.00
5996;BME280;3026;53.612;7.278;2022-12-11T06:46:09;100944.22;;;-0.01;100.00
5996;BME280;3026;53.612;7.278;2022-12-11T06:48:37;100946.72;;;0.03;100.00
5996;BME280;3026;53.612;7.278;2022-12-11T06:51:08;100945.75;;;0.04;100.00
5996;BME280;3026;53.612;7.278;2022-12-11T06:53:35;100936.75;;;0.05;100.00
5996;BME280;3026;53.612;7.278;2022-12-11T06:56:03;100942.97;;;0.05;100.00
5996;BME280;3026;53.612;7.278;2022-12-11T06:58:30;100946.50;;;0.06;100.00
5996;BME280;3026;53.612;7.278;2022-12-11T07:00:59;100940.19;;;0.07;100.00
5996;BME280;3026;53.612;7.278;2022-12-11T07:03:26;100945.53;;;0.07;100.00
5996;BME280;3026;53.612;7.278;2022-12-11T07:05:53;100947.25;;;0.08;100.00
5996;BME280;3026;53.612;7.278;2022-12-11T07:08:21;100938.47;;;0.06;100.00
5996;BME280;3026;53.612;7.278;2022-12-11T07:10:48;100949.72;;;0.11;100.00
5996;BME280;3026;53.612;7.278;2022-12-11T07:13:15;100935.69;;;0.07;100.00
5996;BME280;3026;53.612;7.278;2022-12-11T07:15:42;100952.41;;;0.11;100.00
5996;BME280;3026;53.612;7.278;2022-12-11T07:18:09;100948.78;;;0.12;100.00
5996;BME280;3026;53.612;7.278;2022-12-11T07:20:36;100951.47;;;0.12;100.00
5996;BME280;3026;53.612;7.278;2022-12-11T07:23:03;100949.53;;;0.14;100.00
5996;BME280;3026;53.612;7.278;2022-12-11T07:25:31;100948.59;;;0.15;100.00
5996;BME280;3026;53.612;7.278;2022-12-11T07:27:58;100939.97;;;0.10;100.00
5996;BME280;3026;53.612;7.278;2022-12-11T07:30:25;100954.91;;;0.14;100.00
5996;BME280;3026;53.612;7.278;2022-12-11T07:32:52;100959.31;;;0.15;100.00
5996;BME280;3026;53.612;7.278;2022-12-11T07:35:18;100953.94;;;0.15;100.00
5996;BME280;3026;53.612;7.278;2022-12-11T07:37:45;100951.16;;;0.16;100.00
5996;BME280;3026;53.612;7.278;2022-12-11T07:40:12;100954.81;;;0.15;100.00
5996;BME280;3026;53.612;7.278;2022-12-11T07:42:41;100950.50;;;0.13;100.00
5996;BME280;3026;53.612;7.278;2022-12-11T07:45:09;100952.22;;;0.14;100.00
5996;BME280;3026;53.612;7.278;2022-12-11T07:47:36;100952.00;;;0.17;100.00
5996;BME280;3026;53.612;7.278;2022-12-11T07:50:03;100957.59;;;0.14;100.00
5996;BME280;3026;53.612;7.278;2022-12-11T07:52:32;100950.50;;;0.13;100.00
5996;BME280;3026;53.612;7.278;2022-12-11T07:54:59;100959.09;;;0.18;100.00
5996;BME280;3026;53.612;7.278;2022-12-11T07:57:26;100961.78;;;0.18;100.00
5996;BME280;3026;53.612;7.278;2022-12-11T07:59:55;100962.94;;;0.14;100.00
5996;BME280;3026;53.612;7.278;2022-12-11T08:02:22;100974.22;;;0.19;100.00
5996;BME280;3026;53.612;7.278;2022-12-11T08:04:49;100974.97;;;0.21;100.00
5996;BME280;3026;53.612;7.278;2022-12-11T08:07:16;100978.63;;;0.20;100.00
5996;BME280;3026;53.612;7.278;2022-12-11T08:09:43;100972.59;;;0.16;100.00
5996;BME280;3026;53.612;7.278;2022-12-11T08:12:10;100973.47;;;0.17;100.00
5996;BME280;3026;53.612;7.278;2022-12-11T08:14:38;100978.81;;;0.17;100.00
5996;BME280;3026;53.612;7.278;2022-12-11T08:17:06;100978.81;;;0.17;100.00
5996;BME280;3026;53.612;7.278;2022-12-11T08:19:33;100973.47;;;0.17;100.00
5996;BME280;3026;53.612;7.278;2022-12-11T08:22:00;100990.88;;;0.24;100.00
5996;BME280;3026;53.612;7.278;2022-12-11T08:24:26;100985.41;;;0.25;100.00
5996;BME280;3026;53.612;7.278;2022-12-11T08:26:53;100988.84;;;0.27;100.00
5996;BME280;3026;53.612;7.278;2022-12-11T08:29:20;100986.03;;;0.29;100.00
5996;BME280;3026;53.612;7.278;2022-12-11T08:31:47;100983.56;;;0.26;100.00
5996;BME280;3026;53.612;7.278;2022-12-11T08:34:15;100986.78;;;0.31;100.00
5996;BME280;3026;53.612;7.278;2022-12-11T08:36:42;100990.22;;;0.33;100.00
5996;BME280;3026;53.612;7.278;2022-12-11T08:39:09;100988.72;;;0.29;100.00
5996;BME280;3026;53.612;7.278;2022-12-11T08:41:36;100994.84;;;0.31;100.00
5996;BME280;3026;53.612;7.278;2022-12-11T08:44:03;100992.16;;;0.31;100.00
5996;BME280;3026;53.612;7.278;2022-12-11T08:46:31;100998.38;;;0.32;100.00
5996;BME280;3026;53.612;7.278;2022-12-11T08:48:59;101000.97;;;0.33;100.00
5996;BME280;3026;53.612;7.278;2022-12-11T08:51:28;100990.22;;;0.33;100.00
5996;BME280;3026;53.612;7.278;2022-12-11T08:53:57;100996.44;;;0.34;100.00
5996;BME280;3026;53.612;7.278;2022-12-11T08:56:25;100983.38;;;0.29;100.00
5996;BME280;3026;53.612;7.278;2022-12-11T08:58:52;100985.94;;;0.31;100.00
5996;BME280;3026;53.612;7.278;2022-12-11T09:01:21;100990.06;;;0.36;100.00
5996;BME280;3026;53.612;7.278;2022-12-11T09:03:49;100987.38;;;0.36;100.00
5996;BME280;3026;53.612;7.278;2022-12-11T09:06:18;100990.06;;;0.36;100.00
5996;BME280;3026;53.612;7.278;2022-12-11T09:08:48;100991.75;;;0.37;100.00
5996;BME280;3026;53.612;7.278;2022-12-11T09:11:17;100997.13;;;0.37;100.00
5996;BME280;3026;53.612;7.278;2022-12-11T09:13:45;100984.69;;;0.36;100.00
5996;BME280;3026;53.612;7.278;2022-12-11T09:16:14;100986.41;;;0.37;100.00
5996;BME280;3026;53.612;7.278;2022-12-11T09:18:41;100979.31;;;0.36;100.00
5996;BME280;3026;53.612;7.278;2022-12-11T09:21:10;100986.41;;;0.37;100.00
5996;BME280;3026;53.612;7.278;2022-12-11T09:23:38;100984.69;;;0.36;100.00
5996;BME280;3026;53.612;7.278;2022-12-11T09:26:08;100988.34;;;0.35;100.00
5996;BME280;3026;53.612;7.278;2022-12-11T09:28:37;100975.84;;;0.34;100.00
5996;BME280;3026;53.612;7.278;2022-12-11T09:31:07;100973.16;;;0.34;100.00
5996;BME280;3026;53.612;7.278;2022-12-11T09:33:34;100975.00;;;0.34;100.00
5996;BME280;3026;53.612;7.278;2022-12-11T09:36:02;100982.97;;;0.35;100.00
5996;BME280;3026;53.612;7.278;2022-12-11T09:38:30;100972.41;;;0.32;100.00
5996;BME280;3026;53.612;7.278;2022-12-11T09:40:57;100980.56;;;0.31;100.00
5996;BME280;3026;53.612;7.278;2022-12-11T09:43:35;100967.50;;;0.26;100.00
5996;BME280;3026;53.612;7.278;2022-12-11T09:46:07;100974.34;;;0.30;100.00
5996;BME280;3026;53.612;7.278;2022-12-11T09:48:35;100960.19;;;0.28;100.00
5996;BME280;3026;53.612;7.278;2022-12-11T09:51:12;100963.63;;;0.30;100.00
5996;BME280;3026;53.612;7.278;2022-12-11T09:53:41;100960.94;;;0.30;100.00
5996;BME280;3026;53.612;7.278;2022-12-11T09:56:14;100954.63;;;0.31;100.00
5996;BME280;3026;53.612;7.278;2022-12-11T09:58:53;100956.22;;;0.34;100.00
5996;BME280;3026;53.612;7.278;2022-12-11T10:01:25;100954.41;;;0.34;100.00
5996;BME280;3026;53.612;7.278;2022-12-11T10:04:09;100955.38;;;0.33;100.00
5996;BME280;3026;53.612;7.278;2022-12-11T10:06:45;100957.06;;;0.34;100.00
5996;BME280;3026;53.612;7.278;2022-12-11T10:09:18;100946.69;;;0.29;100.00
5996;BME280;3026;53.612;7.278;2022-12-11T10:12:00;100957.50;;;0.28;100.00
5996;BME280;3026;53.612;7.278;2022-12-11T10:14:41;100959.13;;;0.31;100.00
5996;BME280;3026;53.612;7.278;2022-12-11T10:17:17;100956.31;;;0.32;100.00
5996;BME280;3026;53.612;7.278;2022-12-11T10:19:46;100950.97;;;0.32;100.00
5996;BME280;3026;53.612;7.278;2022-12-11T10:22:21;100949.25;;;0.31;100.00
5996;BME280;3026;53.612;7.278;2022-12-11T10:24:53;100930.91;;;0.25;100.00
5996;BME280;3026;53.612;7.278;2022-12-11T10:27:23;100942.16;;;0.30;100.00
5996;BME280;3026;53.612;7.278;2022-12-11T10:30:01;100936.81;;;0.30;100.00
5996;BME280;3026;53.612;7.278;2022-12-11T10:32:44;100926.50;;;0.24;100.00
5996;BME280;3026;53.612;7.278;2022-12-11T10:35:19;100938.53;;;0.31;100.00
5996;BME280;3026;53.612;7.278;2022-12-11T10:37:46;100932.31;;;0.31;100.00
5996;BME280;3026;53.612;7.278;2022-12-11T10:40:13;100936.59;;;0.33;100.00
5996;BME280;3026;53.612;7.278;2022-12-11T10:42:50;100932.94;;;0.34;100.00
5996;BME280;3026;53.612;7.278;2022-12-11T10:45:19;100931.22;;;0.33;100.00
5996;BME280;3026;53.612;7.278;2022-12-11T10:47:46;100931.22;;;0.33;100.00
5996;BME280;3026;53.612;7.278;2022-12-11T10:50:24;100934.13;;;0.30;100.00
5996;BME280;3026;53.612;7.278;2022-12-11T10:52:52;100929.50;;;0.32;100.00
5996;BME280;3026;53.612;7.278;2022-12-11T10:55:21;100929.31;;;0.35;100.00
5996;BME280;3026;53.612;7.278;2022-12-11T10:57:54;100926.41;;;0.38;100.00
5996;BME280;3026;53.612;7.278;2022-12-11T11:00:29;100929.84;;;0.40;100.00
5996;BME280;3026;53.612;7.278;2022-12-11T11:02:57;100928.66;;;0.44;100.00
5996;BME280;3026;53.612;7.278;2022-12-11T11:05:29;100927.41;;;0.50;100.00
5996;BME280;3026;53.612;7.278;2022-12-11T11:08:03;100915.38;;;0.55;100.00
5996;BME280;3026;53.612;7.278;2022-12-11T11:10:36;100930.31;;;0.60;100.00
5996;BME280;3026;53.612;7.278;2022-12-11T11:13:03;100920.31;;;0.62;100.00
5996;BME280;3026;53.612;7.278;2022-12-11T11:15:31;100913.44;;;0.57;100.00
5996;BME280;3026;53.612;7.278;2022-12-11T11:18:03;100913.97;;;0.63;100.00
5996;BME280;3026;53.612;7.278;2022-12-11T11:20:35;100908.72;;;0.61;100.00
5996;BME280;3026;53.612;7.278;2022-12-11T11:23:12;100915.69;;;0.64;100.00
5996;BME280;3026;53.612;7.278;2022-12-11T11:25:48;100915.47;;;0.67;100.00
5996;BME280;3026;53.612;7.278;2022-12-11T11:28:17;100913.53;;;0.69;100.00
5996;BME280;3026;53.612;7.278;2022-12-11T11:30:56;100907.97;;;0.72;100.00
5996;BME280;3026;53.612;7.278;2022-12-11T11:33:25;100907.22;;;0.70;100.00
5996;BME280;3026;53.612;7.278;2022-12-11T11:35:53;100908.72;;;0.74;100.00
5996;BME280;3026;53.612;7.278;2022-12-11T11:38:22;100903.34;;;0.74;100.00
5996;BME280;3026;53.612;7.278;2022-12-11T11:40:54;100914.09;;;0.74;100.00
5996;BME280;3026;53.612;7.278;2022-12-11T11:43:31;100909.59;;;0.74;100.00
5996;BME280;3026;53.612;7.278;2022-12-11T11:46:05;100914.94;;;0.74;100.00
5996;BME280;3026;53.612;7.278;2022-12-11T11:48:42;100908.72;;;0.74;100.00
5996;BME280;3026;53.612;7.278;2022-12-11T11:51:14;100906.25;;;0.71;100.00
5996;BME280;3026;53.612;7.278;2022-12-11T11:53:47;100912.16;;;0.76;100.00
5996;BME280;3026;53.612;7.278;2022-12-11T11:56:21;100911.94;;;0.79;100.00
5996;BME280;3026;53.612;7.278;2022-12-11T11:59:00;100915.34;;;0.81;100.00
5996;BME280;3026;53.612;7.278;2022-12-11T12:01:30;100913.00;;;0.76;100.00
5996;BME280;3026;53.612;7.278;2022-12-11T12:03:58;100909.34;;;0.77;100.00
5996;BME280;3026;53.612;7.278;2022-12-11T12:06:53;100910.88;;;0.81;100.00
5996;BME280;3026;53.612;7.278;2022-12-11T12:09:32;100908.94;;;0.83;100.00
5996;BME280;3026;53.612;7.278;2022-12-11T12:12:10;100920.53;;;0.84;100.00
5996;BME280;3026;53.612;7.278;2022-12-11T12:14:53;100912.59;;;0.82;100.00
5996;BME280;3026;53.612;7.278;2022-12-11T12:17:28;100918.72;;;0.84;100.00
5996;BME280;3026;53.612;7.278;2022-12-11T12:20:07;100909.78;;;0.84;100.00
5996;BME280;3026;53.612;7.278;2022-12-11T12:22:55;100913.22;;;0.86;100.00
5996;BME280;3026;53.612;7.278;2022-12-11T12:25:27;100913.97;;;0.88;100.00
5996;BME280;3026;53.612;7.278;2022-12-11T12:28:06;100913.97;;;0.88;100.00
5996;BME280;3026;53.612;7.278;2022-12-11T12:30:42;100912.03;;;0.90;100.00
5996;BME280;3026;53.612;7.278;2022-12-11T12:33:25;100909.34;;;0.90;100.00
5996;BME280;3026;53.612;7.278;2022-12-11T12:36:01;100918.13;;;0.92;100.00
5996;BME280;3026;53.612;7.278;2022-12-11T12:38:39;100918.38;;;0.89;100.00
5996;BME280;3026;53.612;7.278;2022-12-11T12:41:13;100924.06;;;0.84;100.00
5996;BME280;3026;53.612;7.278;2022-12-11T12:43:55;100917.84;;;0.84;100.00
5996;BME280;3026;53.612;7.278;2022-12-11T12:46:32;100915.16;;;0.84;100.00
5996;BME280;3026;53.612;7.278;2022-12-11T12:49:11;100912.13;;;0.88;100.00
5996;BME280;3026;53.612;7.278;2022-12-11T12:51:41;100910.31;;;0.89;100.00
5996;BME280;3026;53.612;7.278;2022-12-11T12:54:11;100908.25;;;0.93;100.00
5996;BME280;3026;53.612;7.278;2022-12-11T12:56:40;100908.47;;;0.90;100.00
5996;BME280;3026;53.612;7.278;2022-12-11T12:59:18;100906.88;;;0.87;100.00
5996;BME280;3026;53.612;7.278;2022-12-11T13:01:49;100903.34;;;0.86;100.00
5996;BME280;3026;53.612;7.278;2022-12-11T13:04:33;100912.38;;;0.85;100.00
5996;BME280;3026;53.612;7.278;2022-12-11T13:07:10;100904.44;;;0.84;100.00
5996;BME280;3026;53.612;7.278;2022-12-11T13:09:38;100907.84;;;0.86;100.00
5996;BME280;3026;53.612;7.278;2022-12-11T13:12:12;100913.00;;;0.89;100.00
5996;BME280;3026;53.612;7.278;2022-12-11T13:14:40;100907.63;;;0.89;100.00
5996;BME280;3026;53.612;7.278;2022-12-11T13:17:25;100907.41;;;0.92;100.00
5996;BME280;3026;53.612;7.278;2022-12-11T13:20:17;100914.53;;;0.93;100.00
5996;BME280;3026;53.612;7.278;2022-12-11T13:23:07;100910.00;;;0.94;100.00